메인 페이지
METAR-TAF:

METAR-TAF

공항 :

댈러스 포트워스 국제공항

댈러스 / 포트워스, 텍사스, 미국

위도: 32-53-49N, 경도: 097-01-19W, 고도: 183m

현재 날씨관측

예보는 16분 전, 13:53시(UTC)에 발표되었습니다.
북북서17kt, 순간 최대 풍속 26kt
온도 12°C
습도 58%
기압 1019 hPa
시정: 16.1km
고도 2100ft 상공 구름 많음

METAR: KDFW 061353Z 34017G26KT 10SM BKN021 12/04 A3010 RMK AO2 PK WND 34026/1347 SLP188 T01170044

시각: 08:09 (14:09 UTC)

예보

예보는 26분 전, 13:43시(UTC)에 발표되었습니다.
예보 대상 시간: 06일 14시부터 07일 18시까지 (UTC)
북북서17kt
시정: 10km
고도 2100ft 상공 구름 보통
일시적
06일 14시부터 06일 15시까지 (UTC)
고도 2100ft 상공 구름 많음
06일 2100시부터 (UTC)
15kt
시정: 10km
고도 30000ft 상공 구름 많음
07일 0200시부터 (UTC)
7kt
시정: 10km
고도 30000ft 상공 구름 많음
07일 1600시부터 (UTC)
4kt
시정: 10km
고도 1500ft 상공 구름 보통
고도 25000ft 상공 구름 많음

TAF: KDFW 061343Z 0614/0718 33017KT P6SM SCT021 TEMPO 0614/0615 BKN021 FM062100 35015KT P6SM BKN300 FM070200 36007KT P6SM BKN300 FM071600 10004KT P6SM SCT015 BKN250

4,000개 이상의 공항 관측 자료 및 예보 (METAR 및 TAF 보고).

지도상에서 검색 가능한 기상관측소가 노란 점과 빨간 점으로 표시되어 있습니다.

기상관측소 명을 보려면 표시 위로 마우스를 이동하세요.

날씨 관측과 예보를 보려면 클릭하세요.

지도 변경 : 확대하려면 엑스 표시가 있는 녹색 버튼, 축소하려면 빼기 표시가 있는 녹색 버튼, 다음 페이지의 지도를 보려면 녹색 화살표를 클릭하세요.


METAR-TAF: